MST,Max TemperatureF,Mean TemperatureF,Min TemperatureF,Max Dew PointF,MeanDew PointF,Min DewpointF,Max Humidity, Mean Humidity, Min Humidity, Max Sea Level PressureIn, Mean Sea Level PressureIn, Min Sea Level PressureIn, Max VisibilityMiles, Mean VisibilityMiles, Min VisibilityMiles, Max Wind SpeedMPH, Mean Wind SpeedMPH, Max Gust SpeedMPH,PrecipitationIn, CloudCover, Events, WindDirDegrees
2013-1-1,21,16,10,16,11,6,93,80,68,30.55,30.39,30.26,10,9,2,10,5,,0.00,6,Rain-Snow,133
2013-1-2,19,14,8,12,6,3,92,80,69,30.61,30.45,30.37,10,8,3,13,8,,0.00,5,Snow,114
2013-1-3,17,11,5,10,3,-1,87,78,58,30.64,30.50,30.39,10,8,2,15,8,,0.00,4,Snow,104
2013-1-4,17,10,3,9,3,-2,86,79,63,30.62,30.46,30.35,10,9,5,13,7,,0.00,5,Snow,87
2013-1-5,16,10,3,9,4,-1,85,81,68,30.68,30.52,30.38,10,8,3,10,5,,0.00,3,Snow,88
2013-1-6,15,10,5,12,5,0,86,84,78,30.44,30.26,30.12,10,5,1,7,2,,0.00,2,Snow,10
2013-1-7,19,12,4,15,7,0,87,82,74,30.38,30.21,30.12,10,3,0,8,3,,0.00,4,Fog-Snow,224
2013-1-8,31,24,19,24,18,14,83,77,68,30.45,30.36,30.20,10,6,3,8,3,,0.00,8,,196
2013-1-9,38,28,19,25,21,16,93,75,59,30.45,30.21,29.83,10,8,4,16,6,22,0.00,1,,130
2013-1-10,41,30,19,28,22,18,100,85,52,29.76,29.60,29.53,10,3,0,20,11,25,0.14,7,Fog-Snow,324
2013-1-11,21,18,14,18,16,12,93,88,74,30.06,29.76,29.60,10,4,0,21,8,26,0.02,8,Snow,266
2013-1-12,14,10,5,12,6,-4,93,81,60,30.27,30.01,29.92,10,6,1,10,4,,0.06,6,Snow,319
2013-1-13,10,5,0,4,-2,-7,84,74,64,30.42,30.25,30.06,10,9,2,14,9,,0.00,3,,96
2013-1-14,10,3,-4,3,-3,-11,85,73,66,30.60,30.43,30.24,10,9,3,16,9,,0.00,5,Snow,132
2013-1-15,16,12,8,9,6,3,85,77,68,30.77,30.58,30.37,10,9,5,6,3,,0.00,8,Snow,226
2013-1-16,22,17,12,14,10,8,88,78,69,30.81,30.70,30.59,10,9,6,8,3,,0.00,6,Snow,32
2013-1-17,19,14,8,13,8,4,92,83,73,30.81,30.64,30.51,10,5,2,10,7,,0.00,4,Snow,74
2013-1-18,17,12,6,11,6,3,92,83,72,30.72,30.53,30.45,10,5,0,8,3,,0.00,4,Fog-Snow,73
2013-1-19,17,12,6,12,6,3,92,83,73,30.75,30.52,30.46,10,4,0,8,2,,0.00,2,Snow,49
2013-1-20,15,10,5,12,5,1,87,84,79,30.69,30.49,30.43,10,4,0,8,2,,0.00,3,Snow,61
2013-1-21,16,10,3,13,4,-1,85,83,78,30.71,30.51,30.42,10,4,0,6,2,,0.00,4,Fog-Snow,302
2013-1-22,16,10,3,12,2,-2,86,82,78,30.63,30.45,30.34,10,2,0,7,2,,0.00,1,Snow,296
2013-1-23,17,10,3,14,4,0,86,84,78,30.55,30.38,30.27,8,2,0,8,3,,0.00,1,Snow,239
2013-1-24,30,22,15,28,24,12,100,92,85,30.42,30.32,30.24,10,2,0,10,3,,0.17,4,Fog-Rain-Snow,327
2013-1-25,33,30,26,33,30,25,100,98,93,30.37,30.24,30.14,2,1,0,10,3,,0.00,7,Fog,180
2013-1-26,35,32,28,34,31,28,100,99,93,30.14,29.98,29.84,10,2,0,14,6,,0.00,6,Fog-Snow,142
2013-1-27,35,30,23,36,29,23,100,98,93,29.95,29.81,29.70,10,2,0,20,6,25,0.35,7,Fog-Rain-Snow,331
2013-1-28,25,22,20,23,21,17,100,93,78,30.06,29.94,29.88,10,7,1,8,4,,0.03,6,Snow,183
2013-1-29,26,22,18,24,21,18,100,95,86,30.26,29.96,29.84,10,4,0,15,9,21,0.02,6,Snow,173
2013-1-30,35,30,24,32,27,23,100,96,81,30.27,30.20,30.15,10,6,1,15,9,,0.02,7,Snow,179
2013-1-31,40,34,28,31,29,25,87,78,66,30.36,30.30,30.24,10,10,10,10,6,,0.00,7,,185